createdAt,value
2023-05-11T00:02:15.364Z,63079.09
2023-05-11T00:03:17.495Z,63084.30
2023-05-11T00:04:19.654Z,63071.68
2023-05-11T00:05:21.616Z,63068.83
2023-05-11T00:06:23.612Z,63076.89
2023-05-11T00:07:25.490Z,63067.33
2023-05-11T00:08:27.342Z,63071.01
2023-05-11T00:09:29.208Z,63079.09
2023-05-11T00:10:31.290Z,63076.21
2023-05-11T00:11:33.246Z,63068.58
2023-05-11T00:12:35.121Z,63069.93
2023-05-11T00:13:36.976Z,63070.34
2023-05-11T00:14:39.489Z,63073.50
2023-05-11T00:15:41.681Z,63063.80
2023-05-11T00:16:43.796Z,63064.88
2023-05-11T00:17:45.709Z,63054.09
2023-05-11T00:18:47.808Z,63053.30
2023-05-11T00:19:49.810Z,63063.54
2023-05-11T00:20:51.755Z,63051.37
2023-05-11T00:21:53.919Z,63058.89
2023-05-11T00:22:55.924Z,63056.02
2023-05-11T00:23:57.790Z,63048.52
2023-05-11T00:24:59.729Z,63049.48
2023-05-11T00:26:01.575Z,63054.64
2023-05-11T00:27:03.611Z,63052.88
2023-05-11T00:28:05.475Z,63052.88
2023-05-11T00:29:08.483Z,63049.60
2023-05-11T00:30:11.871Z,63042.50
2023-05-11T00:31:13.762Z,63038.94
2023-05-11T00:32:15.809Z,63042.08
2023-05-11T00:33:17.676Z,63058.33
2023-05-11T00:34:19.541Z,63065.98
2023-05-11T00:35:22.869Z,63058.46
2023-05-11T00:36:24.818Z,63050.16
2023-05-11T00:37:26.792Z,63050.95
2023-05-11T00:38:29.189Z,63053.97
2023-05-11T00:39:31.089Z,63051.77
2023-05-11T00:40:33.643Z,63038.69
2023-05-11T00:41:35.602Z,63031.71
2023-05-11T00:42:37.478Z,63033.78
2023-05-11T00:43:39.966Z,63028.86
2023-05-11T00:44:41.810Z,63028.86
2023-05-11T00:45:43.671Z,63029.96
2023-05-11T00:46:45.644Z,63029.40
2023-05-11T00:47:47.788Z,63025.05
2023-05-11T00:48:49.672Z,63015.22
2023-05-11T00:49:53.200Z,63001.16
2023-05-11T00:50:55.412Z,63010.73
2023-05-11T00:51:57.389Z,63023.41
2023-05-11T00:52:59.329Z,63023.52
2023-05-11T00:54:01.894Z,63027.36
2023-05-11T00:55:04.389Z,63015.22
2023-05-11T00:56:07.899Z,63042.79
2023-05-11T00:57:09.826Z,63022.87
2023-05-11T00:58:12.092Z,63023.95
2023-05-11T00:59:13.995Z,62997.21
2023-05-11T01:00:17.127Z,63005.95
2023-05-11T01:01:19.382Z,62995.59
2023-05-11T01:02:21.692Z,62999.41
2023-05-11T01:03:24.143Z,62999.69
2023-05-11T01:04:26.943Z,62998.84
2023-05-11T01:05:35.495Z,62995.45
2023-05-11T01:06:44.305Z,62993.39
2023-05-11T01:07:56.495Z,62989.58
2023-05-11T01:09:04.990Z,62994.61
2023-05-11T01:10:17.050Z,62986.30
2023-05-11T01:11:31.970Z,62999.95
2023-05-11T01:12:46.830Z,63006.36
2023-05-11T01:13:58.369Z,63016.61
2023-05-11T01:15:06.581Z,63009.77
2023-05-11T01:16:16.437Z,62992.86
2023-05-11T01:17:25.218Z,62984.53
2023-05-11T01:18:39.998Z,62973.21
2023-05-11T01:19:51.895Z,62964.91
2023-05-11T01:21:00.661Z,62937.89
2023-05-11T01:23:45.562Z,62966.68
2023-05-11T01:24:54.222Z,62942.27
2023-05-11T01:26:05.577Z,62928.50
2023-05-11T01:27:18.651Z,62940.75
2023-05-11T01:28:44.031Z,62924.27
2023-05-11T01:30:14.352Z,62952.49
2023-05-11T01:31:18.671Z,62954.66
2023-05-11T01:32:24.328Z,62955.22
2023-05-11T01:33:30.166Z,62951.41
2023-05-11T01:34:36.846Z,62959.46
2023-05-11T01:35:42.544Z,62947.04
2023-05-11T01:36:54.526Z,62944.19
2023-05-11T01:37:59.050Z,62945.94
2023-05-11T01:39:04.841Z,62938.74
2023-05-11T01:40:13.528Z,62947.46
2023-05-11T01:41:18.344Z,62944.86
2023-05-11T01:42:26.866Z,62927.40
2023-05-11T01:43:32.043Z,62929.31
2023-05-11T01:44:36.793Z,62947.32
2023-05-11T01:45:42.479Z,62952.77
2023-05-11T01:46:46.020Z,62947.58
2023-05-11T01:47:50.254Z,62946.79
2023-05-11T01:48:55.664Z,62920.20
2023-05-11T01:50:00.209Z,62936.82
2023-05-11T01:51:03.027Z,62939.41
2023-05-11T01:52:07.369Z,62925.23
2023-05-11T01:53:11.970Z,62934.50
2023-05-11T01:54:15.712Z,62936.68
2023-05-11T01:55:20.998Z,62947.04
2023-05-11T01:56:26.050Z,62951.41
2023-05-11T01:57:29.967Z,62927.54
2023-05-11T01:58:35.441Z,62920.45
2023-05-11T01:59:39.474Z,62931.77
2023-05-11T02:00:43.651Z,62893.20
2023-05-11T02:01:46.263Z,62918.68
2023-05-11T02:02:49.500Z,62911.48
2023-05-11T02:03:53.702Z,62930.67
2023-05-11T02:04:58.712Z,62920.87
2023-05-11T02:06:04.224Z,62911.06
2023-05-11T02:07:09.790Z,62917.61
2023-05-11T02:08:13.735Z,62911.73
2023-05-11T02:09:18.263Z,62920.87
2023-05-11T02:10:23.033Z,62923.30
2023-05-11T02:11:27.424Z,62933.54
2023-05-11T02:12:31.500Z,62936.14
2023-05-11T02:13:37.117Z,62923.59
2023-05-11T02:14:40.724Z,62932.87
2023-05-11T02:15:44.267Z,62930.13
2023-05-11T02:16:49.059Z,62935.18
2023-05-11T02:17:53.865Z,62932.31
2023-05-11T02:18:58.549Z,62913.23
2023-05-11T02:20:02.358Z,62886.52
2023-05-11T02:21:06.747Z,62907.79
2023-05-11T02:22:09.290Z,62905.61
2023-05-11T02:23:12.285Z,62908.32
2023-05-11T02:24:15.242Z,62920.87
2023-05-11T02:25:17.912Z,62925.23
2023-05-11T02:26:20.297Z,62930.13
2023-05-11T02:27:22.129Z,62929.60
2023-05-11T02:28:24.306Z,62927.14
2023-05-11T02:29:26.987Z,62911.06
2023-05-11T02:30:31.864Z,62921.95
2023-05-11T02:31:37.618Z,62924.55
2023-05-11T02:32:50.424Z,62936.68
2023-05-11T02:33:56.127Z,62938.43
2023-05-11T02:35:07.193Z,62933.27
2023-05-11T02:36:11.445Z,62915.83
2023-05-11T02:37:17.101Z,62873.04
2023-05-11T02:38:20.566Z,62906.69
2023-05-11T02:39:26.244Z,62917.18
2023-05-11T02:40:35.436Z,62923.05
2023-05-11T02:41:41.118Z,62931.77
2023-05-11T02:42:44.937Z,62916.64
2023-05-11T02:43:50.491Z,62897.97
2023-05-11T02:45:05.027Z,62917.47
2023-05-11T02:46:10.834Z,62913.77
2023-05-11T02:47:14.759Z,62904.94
2023-05-11T02:48:26.431Z,62886.52
2023-05-11T02:49:31.446Z,62907.65
2023-05-11T02:50:37.043Z,62908.61
2023-05-11T02:51:44.438Z,62901.66
2023-05-11T02:52:49.046Z,62914.33
2023-05-11T02:53:54.113Z,62913.23
2023-05-11T02:54:58.175Z,62915.12
2023-05-11T02:56:01.597Z,62920.87
2023-05-11T02:57:03.827Z,62930.42
2023-05-11T02:58:05.995Z,62911.60
2023-05-11T02:59:08.549Z,62912.56
2023-05-11T03:00:12.352Z,62932.73
2023-05-11T03:01:15.028Z,62942.67
2023-05-11T03:02:17.070Z,62931.35
2023-05-11T03:03:19.423Z,62928.25
2023-05-11T03:04:22.320Z,62909.54
2023-05-11T03:05:24.433Z,62903.42
2023-05-11T03:06:26.875Z,62862.00
2023-05-11T03:07:28.744Z,62886.82
2023-05-11T03:08:30.711Z,62890.35
2023-05-11T03:09:33.641Z,62889.11
2023-05-11T03:10:35.991Z,62893.20
2023-05-11T03:11:38.472Z,62897.97
2023-05-11T03:12:40.529Z,62873.74
2023-05-11T03:13:43.406Z,62871.82
2023-05-11T03:14:46.430Z,62872.24
2023-05-11T03:15:50.151Z,62863.50
2023-05-11T03:16:54.381Z,62883.13
2023-05-11T03:17:59.067Z,62888.71
2023-05-11T03:19:02.186Z,62891.85
2023-05-11T03:20:07.122Z,62890.07
2023-05-11T03:21:09.654Z,62886.52
2023-05-11T03:22:12.541Z,62887.08
2023-05-11T03:23:17.178Z,62887.08
2023-05-11T03:24:20.983Z,62895.80
2023-05-11T03:25:24.245Z,62911.88
2023-05-11T03:26:29.194Z,62903.42
2023-05-11T03:27:32.656Z,62888.16
2023-05-11T03:28:36.274Z,62902.09
2023-05-11T03:29:39.987Z,62888.83
2023-05-11T03:30:45.145Z,62905.05
2023-05-11T03:31:50.398Z,62896.34
2023-05-11T03:32:52.355Z,62921.41
2023-05-11T03:33:54.552Z,62941.59
2023-05-11T03:34:56.596Z,62941.59
2023-05-11T03:35:59.990Z,62956.18
2023-05-11T03:37:05.056Z,62957.26
2023-05-11T03:38:07.875Z,62970.11
2023-05-11T03:39:11.855Z,62959.57
2023-05-11T03:40:16.418Z,62972.13
2023-05-11T03:41:19.642Z,62987.80
2023-05-11T03:42:22.667Z,62969.93
2023-05-11T03:43:28.116Z,62968.30
2023-05-11T03:44:33.117Z,62929.04
2023-05-11T03:45:37.071Z,62947.29
2023-05-11T03:46:41.372Z,62953.59
2023-05-11T03:47:46.093Z,62949.21
2023-05-11T03:48:49.361Z,62934.50
2023-05-11T03:49:52.631Z,62944.73
2023-05-11T03:50:56.006Z,62966.68
2023-05-11T03:51:59.129Z,62986.44
2023-05-11T03:53:02.411Z,63000.48
2023-05-11T03:54:06.554Z,63020.67
2023-05-11T03:55:09.829Z,63022.98
2023-05-11T03:56:12.641Z,62997.63
2023-05-11T03:57:15.046Z,62980.86
2023-05-11T03:58:16.988Z,63015.22
2023-05-11T03:59:19.394Z,63028.32
2023-05-11T04:00:21.483Z,63029.96
2023-05-11T04:01:23.746Z,63033.64
2023-05-11T04:02:25.738Z,63041.71
2023-05-11T04:03:28.067Z,63065.55
2023-05-11T04:04:31.233Z,63063.37
2023-05-11T04:05:33.940Z,63061.61
2023-05-11T04:06:35.912Z,63046.21
2023-05-11T04:07:38.848Z,63046.75
2023-05-11T04:08:40.735Z,63064.34
2023-05-11T04:09:42.806Z,63059.00
2023-05-11T04:10:44.781Z,63069.12
2023-05-11T04:11:46.635Z,63075.39
2023-05-11T04:12:48.509Z,63069.01
2023-05-11T04:13:50.454Z,63051.12
2023-05-11T04:14:52.343Z,63076.48
2023-05-11T04:15:54.518Z,63083.45
2023-05-11T04:16:56.644Z,63095.46
2023-05-11T04:17:58.668Z,63107.89
2023-05-11T04:19:01.201Z,63095.16
2023-05-11T04:20:04.768Z,63091.10
2023-05-11T04:21:06.613Z,63081.27
2023-05-11T04:22:08.500Z,63076.89
2023-05-11T04:23:10.603Z,63081.27
2023-05-11T04:24:12.690Z,63119.48
2023-05-11T04:25:15.552Z,63137.52
2023-05-11T04:26:17.600Z,63150.09
2023-05-11T04:27:19.470Z,63171.70
2023-05-11T04:28:21.959Z,63183.97
2023-05-11T04:29:24.567Z,63190.96
2023-05-11T04:30:26.733Z,63163.75
2023-05-11T04:31:28.924Z,63192.71
2023-05-11T04:32:31.079Z,63164.96
2023-05-11T04:33:32.975Z,63200.37
2023-05-11T04:34:34.908Z,63197.77
2023-05-11T04:35:38.875Z,63214.82
2023-05-11T04:36:40.918Z,63216.76
2023-05-11T04:37:42.878Z,63208.44
2023-05-11T04:38:44.955Z,63235.35
2023-05-11T04:39:46.815Z,63251.46
2023-05-11T04:40:49.503Z,63248.48
2023-05-11T04:41:51.372Z,63261.59
2023-05-11T04:42:53.339Z,63276.90
2023-05-11T04:43:55.216Z,63280.86
2023-05-11T04:44:57.089Z,63269.25
2023-05-11T04:45:59.896Z,63290.57
2023-05-11T04:47:02.275Z,63301.52
2023-05-11T04:48:05.204Z,63319.03
2023-05-11T04:49:07.380Z,63330.09
2023-05-11T04:50:10.107Z,63338.84
2023-05-11T04:51:11.976Z,63344.07
2023-05-11T04:52:13.824Z,63341.05
2023-05-11T04:53:15.738Z,63348.70
2023-05-11T04:54:17.950Z,63364.45
2023-05-11T04:55:20.785Z,63346.52
2023-05-11T04:56:22.979Z,63358.55
2023-05-11T04:57:25.120Z,63358.55
2023-05-11T04:58:27.922Z,63348.70
2023-05-11T04:59:29.904Z,63373.99
2023-05-11T05:00:31.972Z,63380.56
2023-05-11T05:01:34.231Z,63388.54
2023-05-11T05:02:36.560Z,63379.05
2023-05-11T05:03:38.778Z,63417.14
2023-05-11T05:04:40.668Z,63434.56
2023-05-11T05:05:42.504Z,63436.98
2023-05-11T05:06:45.170Z,63449.89
2023-05-11T05:07:47.127Z,63462.05
2023-05-11T05:08:49.175Z,63480.81
2023-05-11T05:09:51.184Z,63481.24
2023-05-11T05:10:53.121Z,63484.77
2023-05-11T05:11:55.094Z,63506.99
2023-05-11T05:12:56.958Z,63504.25
2023-05-11T05:13:58.830Z,63514.53
2023-05-11T05:15:00.709Z,63526.17
2023-05-11T05:16:03.479Z,63553.04
2023-05-11T05:17:05.594Z,63535.61
2023-05-11T05:18:07.752Z,63547.67
2023-05-11T05:19:09.895Z,63556.43
2023-05-11T05:20:12.133Z,63543.17
2023-05-11T05:21:13.970Z,63531.21
2023-05-11T05:22:15.806Z,63541.52
2023-05-11T05:23:17.736Z,63567.39
2023-05-11T05:24:19.594Z,63573.98
2023-05-11T05:25:21.498Z,63578.68
2023-05-11T05:26:23.783Z,63561.68
2023-05-11T05:27:26.092Z,63564.30
2023-05-11T05:28:27.968Z,63575.08
2023-05-11T05:29:29.779Z,63556.31
2023-05-11T05:30:32.398Z,63555.10
2023-05-11T05:31:34.621Z,63582.20
2023-05-11T05:32:36.605Z,63606.66
2023-05-11T05:33:38.591Z,63597.02
2023-05-11T05:34:40.492Z,63629.71
2023-05-11T05:35:42.356Z,63645.49
2023-05-11T05:36:44.334Z,63631.59
2023-05-11T05:37:46.310Z,63625.55
2023-05-11T05:38:48.134Z,63643.66
2023-05-11T05:39:50.045Z,63647.39
2023-05-11T05:40:52.020Z,63636.41
2023-05-11T05:41:53.981Z,63651.23
2023-05-11T05:42:55.816Z,63662.63
2023-05-11T05:43:58.138Z,63662.63
2023-05-11T05:45:00.817Z,63678.12
2023-05-11T05:46:02.851Z,63686.78
2023-05-11T05:47:05.196Z,63692.93
2023-05-11T05:48:07.188Z,63728.74
2023-05-11T05:49:10.171Z,63779.15
2023-05-11T05:50:12.957Z,63807.40
2023-05-11T05:51:14.917Z,63831.48
2023-05-11T05:52:17.714Z,63853.45
2023-05-11T05:53:20.087Z,63846.84
2023-05-11T05:54:22.931Z,63827.62
2023-05-11T05:55:24.785Z,63833.11
2023-05-11T05:56:26.912Z,63825.42
2023-05-11T05:57:29.001Z,63846.97
2023-05-11T05:58:30.927Z,63855.09
2023-05-11T05:59:32.920Z,63866.64
2023-05-11T06:00:35.001Z,63886.44
2023-05-11T06:01:36.973Z,63888.52
2023-05-11T06:02:39.129Z,63853.22
2023-05-11T06:03:41.352Z,63874.89
2023-05-11T06:04:43.824Z,63912.95
2023-05-11T06:05:45.917Z,63895.24
2023-05-11T06:06:48.022Z,63919.45
2023-05-11T06:08:01.843Z,63960.04
2023-05-11T06:08:53.694Z,63934.41
2023-05-11T06:09:55.551Z,63962.68
2023-05-11T06:10:57.635Z,63993.71
2023-05-11T06:11:59.527Z,63992.18
2023-05-11T06:13:01.425Z,63998.12
2023-05-11T06:14:03.500Z,64040.48
2023-05-11T06:15:06.754Z,64020.78
2023-05-11T06:16:08.795Z,64049.62
2023-05-11T06:17:10.855Z,64105.15
2023-05-11T06:18:12.870Z,64098.42
2023-05-11T06:19:14.879Z,64151.64
2023-05-11T06:20:17.363Z,64156.93
2023-05-11T06:21:20.072Z,64157.26
2023-05-11T06:22:22.164Z,64150.31
2023-05-11T06:23:24.813Z,64127.52
2023-05-11T06:24:26.750Z,64150.22
2023-05-11T06:25:28.859Z,64168.93
2023-05-11T06:26:32.893Z,64215.59
2023-05-11T06:27:34.833Z,64177.79
2023-05-11T06:28:36.679Z,64234.56
2023-05-11T06:29:38.670Z,64282.64
2023-05-11T06:30:40.718Z,64281.32
2023-05-11T06:31:42.660Z,64280.23
2023-05-11T06:32:44.595Z,64307.83
2023-05-11T06:33:46.533Z,64303.40
2023-05-11T06:34:48.451Z,64327.88
2023-05-11T06:35:50.401Z,64341.68
2023-05-11T06:36:52.351Z,64328.88
2023-05-11T06:37:54.248Z,64349.21
2023-05-11T06:38:56.116Z,64384.52
2023-05-11T06:39:58.615Z,64386.29
2023-05-11T06:41:00.728Z,64337.16
2023-05-11T06:42:06.389Z,64262.02
2023-05-11T06:43:07.576Z,64260.36
2023-05-11T06:44:09.542Z,64285.08
2023-05-11T06:45:11.581Z,64241.61
2023-05-11T06:46:13.937Z,64295.67
2023-05-11T06:47:15.993Z,64336.07
2023-05-11T06:48:17.899Z,64384.18
2023-05-11T06:49:19.882Z,64315.20
2023-05-11T06:50:25.112Z,64279.32
2023-05-11T06:51:26.607Z,64237.31
2023-05-11T06:52:28.597Z,64225.73
2023-05-11T06:53:30.598Z,64235.20
2023-05-11T06:54:33.354Z,64203.69
2023-05-11T06:55:35.570Z,64237.42
2023-05-11T06:56:37.628Z,64294.68
2023-05-11T06:57:40.156Z,64313.34
2023-05-11T06:58:42.283Z,64321.96
2023-05-11T06:59:44.148Z,64335.05
2023-05-11T07:00:46.161Z,64334.96
2023-05-11T07:01:49.249Z,64322.82
2023-05-11T07:02:51.240Z,64323.28
2023-05-11T07:03:56.377Z,64353.61
2023-05-11T07:04:58.449Z,64284.42
2023-05-11T07:06:00.552Z,64288.14
2023-05-11T07:07:02.701Z,64274.93
2023-05-11T07:08:05.308Z,64261.02
2023-05-11T07:09:07.148Z,64274.70
2023-05-11T07:10:10.172Z,64233.45
2023-05-11T07:11:12.532Z,64218.02
2023-05-11T07:12:15.535Z,64233.00
2023-05-11T07:13:17.367Z,64240.62
2023-05-11T07:14:19.457Z,64226.18
2023-05-11T07:15:21.546Z,64180.53
2023-05-11T07:16:23.718Z,64187.03
2023-05-11T07:17:25.699Z,64202.13
2023-05-11T07:18:27.754Z,64248.23
2023-05-11T07:19:29.706Z,64239.62
2023-05-11T07:20:31.636Z,64282.43
2023-05-11T07:21:35.081Z,64303.52
2023-05-11T07:22:36.992Z,64325.02
2023-05-11T07:23:39.135Z,64355.47
2023-05-11T07:24:41.073Z,64382.73
2023-05-11T07:25:43.171Z,64310.03
2023-05-11T07:26:45.163Z,64326.14
2023-05-11T07:27:47.020Z,64311.89
2023-05-11T07:28:48.878Z,64267.53
2023-05-11T07:29:50.751Z,64291.46
2023-05-11T07:30:52.815Z,64305.27
2023-05-11T07:31:54.780Z,64361.64
2023-05-11T07:32:57.281Z,64390.04
2023-05-11T07:33:59.251Z,64410.69
2023-05-11T07:35:01.127Z,64362.10
2023-05-11T07:36:03.193Z,64325.02
2023-05-11T07:37:05.057Z,64330.45
2023-05-11T07:38:06.923Z,64350.41
2023-05-11T07:39:10.226Z,64354.93
2023-05-11T07:40:12.355Z,64354.61
2023-05-11T07:41:14.676Z,64329.99
2023-05-11T07:42:16.643Z,64349.96
2023-05-11T07:43:18.741Z,64357.70
2023-05-11T07:44:20.765Z,64285.83
2023-05-11T07:45:22.639Z,64359.24
2023-05-11T07:46:24.739Z,64404.95
2023-05-11T07:47:27.380Z,64439.41
2023-05-11T07:48:29.299Z,64432.78
2023-05-11T07:49:43.008Z,64446.49
2023-05-11T07:50:35.188Z,64455.56
2023-05-11T07:51:37.093Z,64433.12
2023-05-11T07:52:39.069Z,64428.15
2023-05-11T07:53:41.044Z,64400.52
2023-05-11T07:54:43.944Z,64353.07
2023-05-11T07:55:46.172Z,64347.98
2023-05-11T07:56:50.157Z,64396.12
2023-05-11T07:57:53.450Z,64412.46
2023-05-11T07:58:55.416Z,64397.21
2023-05-11T07:59:57.299Z,64335.41
2023-05-11T08:00:59.232Z,64302.29
2023-05-11T08:02:01.225Z,64345.55
2023-05-11T08:03:03.447Z,64316.09
2023-05-11T08:04:05.473Z,64323.05
2023-05-11T08:05:08.248Z,64387.49
2023-05-11T08:06:10.890Z,64413.46
2023-05-11T08:07:12.931Z,64476.40
2023-05-11T08:08:14.787Z,64510.13
2023-05-11T08:09:16.661Z,64526.15
2023-05-11T08:10:19.065Z,64544.20
2023-05-11T08:11:21.228Z,64558.10
2023-05-11T08:12:23.123Z,64524.95
2023-05-11T08:13:25.981Z,64481.18
2023-05-11T08:14:28.025Z,64434.23
2023-05-11T08:15:30.066Z,64421.54
2023-05-11T08:16:32.267Z,64392.26
2023-05-11T08:17:34.505Z,64391.26
2023-05-11T08:18:36.588Z,64342.68
2023-05-11T08:19:38.486Z,64319.51
2023-05-11T08:20:40.435Z,64263.22
2023-05-11T08:21:42.284Z,64309.48
2023-05-11T08:22:44.494Z,64340.93
2023-05-11T08:23:46.451Z,64394.66
2023-05-11T08:24:50.440Z,64454.67
2023-05-11T08:25:55.794Z,64463.05
2023-05-11T08:26:58.039Z,64502.82
2023-05-11T08:28:01.330Z,64503.93
2023-05-11T08:29:03.466Z,64492.44
2023-05-11T08:30:07.219Z,64524.49
2023-05-11T08:31:10.202Z,64514.56
2023-05-11T08:32:12.247Z,64531.23
2023-05-11T08:33:33.681Z,64554.79
2023-05-11T08:34:20.135Z,64552.58
2023-05-11T08:35:22.338Z,64507.71
2023-05-11T08:36:24.622Z,64483.04
2023-05-11T08:37:26.698Z,64497.76
2023-05-11T08:38:28.667Z,64481.18
2023-05-11T08:39:46.126Z,64463.61
2023-05-11T08:40:37.146Z,64469.68
2023-05-11T08:41:39.611Z,64412.69
2023-05-11T08:42:44.790Z,64370.27
2023-05-11T08:43:47.830Z,64370.27
2023-05-11T08:44:52.179Z,64324.37
2023-05-11T08:45:58.018Z,64302.29
2023-05-11T08:47:20.514Z,64335.41
2023-05-11T08:48:05.404Z,64326.57
2023-05-11T08:49:08.632Z,64328.88
2023-05-11T08:50:11.103Z,64349.30
2023-05-11T08:51:13.410Z,64349.30
2023-05-11T08:52:17.483Z,64351.95
2023-05-11T08:53:19.498Z,64407.17
2023-05-11T08:54:21.419Z,64433.32
2023-05-11T08:55:25.897Z,64422.18
2023-05-11T08:56:29.268Z,64372.04
2023-05-11T08:57:33.737Z,64288.60
2023-05-11T08:58:37.400Z,64292.45
2023-05-11T08:59:42.590Z,64263.34
2023-05-11T09:00:45.818Z,64326.23
2023-05-11T09:01:50.404Z,64313.88
2023-05-11T09:02:52.669Z,64300.75
2023-05-11T09:03:56.453Z,64315.20
2023-05-11T09:04:59.392Z,64258.82
2023-05-11T09:06:04.300Z,64261.02
2023-05-11T09:07:06.807Z,64268.73
2023-05-11T09:08:11.763Z,64256.51
2023-05-11T09:09:15.049Z,64264.55
2023-05-11T09:10:18.091Z,64203.79
2023-05-11T09:11:21.243Z,64205.23
2023-05-11T09:12:23.974Z,64209.08
2023-05-11T09:13:26.634Z,64205.89
2023-05-11T09:14:29.489Z,64219.79
2023-05-11T09:15:36.895Z,64287.39
2023-05-11T09:16:37.596Z,64306.71
2023-05-11T09:17:39.633Z,64310.69
2023-05-11T09:18:53.151Z,64396.32
2023-05-11T09:20:06.673Z,64419.43
2023-05-11T09:21:08.709Z,64457.98
2023-05-11T09:22:10.584Z,64464.62
2023-05-11T09:23:17.795Z,64457.42
2023-05-11T09:24:20.655Z,64346.55
2023-05-11T09:25:23.946Z,64368.52
2023-05-11T09:26:26.142Z,64343.13
2023-05-11T09:27:28.004Z,64318.96
2023-05-11T09:28:36.060Z,64277.46
2023-05-11T09:29:33.664Z,64295.11
2023-05-11T09:30:35.608Z,64348.21
2023-05-11T09:31:43.518Z,64316.65
2023-05-11T09:32:55.315Z,64308.46
2023-05-11T09:34:18.870Z,64348.21
2023-05-11T09:36:33.737Z,64368.72
2023-05-11T09:37:35.970Z,64336.71
2023-05-11T09:38:38.201Z,64374.04
2023-05-11T09:39:53.332Z,64339.48
2023-05-11T09:40:52.320Z,64300.75
2023-05-11T09:42:15.460Z,64329.22
2023-05-11T09:43:21.813Z,64348.64
2023-05-11T09:44:27.559Z,64318.19
2023-05-11T09:46:45.667Z,64283.09
2023-05-11T09:47:49.107Z,64286.83
2023-05-11T09:48:55.934Z,64304.52
2023-05-11T09:49:57.848Z,64310.23
2023-05-11T09:51:03.550Z,64308.04
2023-05-11T09:52:05.624Z,64349.09
2023-05-11T09:53:08.558Z,64339.82
2023-05-11T09:54:19.092Z,64354.81
2023-05-11T09:55:21.230Z,64348.21
2023-05-11T09:56:23.270Z,64310.03
2023-05-11T09:57:31.013Z,64306.83
2023-05-11T09:58:55.110Z,64322.82
2023-05-11T10:00:01.064Z,64300.09
2023-05-11T10:01:03.155Z,64327.13
2023-05-11T10:02:23.531Z,64329.54
2023-05-11T10:03:26.016Z,64351.30
2023-05-11T10:04:29.259Z,64384.07
2023-05-11T10:05:33.217Z,64404.52
2023-05-11T10:06:47.256Z,64401.86
2023-05-11T10:07:58.656Z,64415.57
2023-05-11T10:09:09.050Z,64394.01
2023-05-11T10:10:13.016Z,64330.99
2023-05-11T10:11:15.455Z,64342.13
2023-05-11T10:12:20.793Z,64374.04
2023-05-11T10:13:27.190Z,64385.72
2023-05-11T10:14:31.482Z,64390.80
2023-05-11T10:15:34.767Z,64395.21
2023-05-11T10:16:38.266Z,64393.46
2023-05-11T10:17:41.131Z,64367.61
2023-05-11T10:18:43.897Z,64389.49
2023-05-11T10:19:48.458Z,64375.89
2023-05-11T10:20:50.977Z,64382.86
2023-05-11T10:21:56.151Z,64326.68
2023-05-11T10:22:58.662Z,64333.30
2023-05-11T10:24:02.831Z,64324.03
2023-05-11T10:25:07.318Z,64326.68
2023-05-11T10:26:11.085Z,64354.81
2023-05-11T10:27:13.778Z,64291.79
2023-05-11T10:28:16.565Z,64297.44
2023-05-11T10:29:19.112Z,64312.00
2023-05-11T10:30:22.185Z,64276.35
2023-05-11T10:31:25.321Z,64279.78
2023-05-11T10:32:29.199Z,64246.69
2023-05-11T10:33:32.416Z,64227.29
2023-05-11T10:34:35.103Z,64241.16
2023-05-11T10:35:38.081Z,64233.45
2023-05-11T10:36:40.129Z,64268.09
2023-05-11T10:37:42.012Z,64257.05
2023-05-11T10:38:44.054Z,64308.92
2023-05-11T10:39:49.257Z,64354.72
2023-05-11T10:40:53.322Z,64381.86
2023-05-11T10:42:14.324Z,64373.15
2023-05-11T10:43:38.178Z,64393.01
2023-05-11T10:44:55.711Z,64397.78
2023-05-11T10:47:38.732Z,64440.96
2023-05-11T10:50:38.699Z,64439.41
2023-05-11T10:52:01.985Z,64457.07
2023-05-11T10:53:13.368Z,64473.65
2023-05-11T10:54:26.482Z,64495.10
2023-05-11T10:55:47.337Z,64481.83
2023-05-11T10:57:03.424Z,64489.58
2023-05-11T10:58:11.913Z,64514.56
2023-05-11T11:00:47.990Z,64493.33
2023-05-11T11:01:51.936Z,64418.88
2023-05-11T11:02:54.046Z,64396.32
2023-05-11T11:03:57.987Z,64382.41
2023-05-11T11:05:00.007Z,64328.34
2023-05-11T11:06:02.856Z,64285.29
2023-05-11T11:07:06.179Z,64270.84
2023-05-11T11:08:08.608Z,64296.99
2023-05-11T11:09:13.028Z,64283.09
2023-05-11T11:10:20.413Z,64286.40
2023-05-11T11:11:36.012Z,64287.05
2023-05-11T11:12:38.247Z,64261.02
2023-05-11T11:13:58.139Z,64274.70
2023-05-11T11:15:03.325Z,64274.70
2023-05-11T11:16:07.795Z,64274.81
2023-05-11T11:17:20.322Z,64270.95
2023-05-11T11:18:25.613Z,64272.49
2023-05-11T11:19:34.554Z,64259.25
2023-05-11T11:20:58.188Z,64241.61
2023-05-11T11:22:01.807Z,64234.33
2023-05-11T11:23:03.674Z,64242.72
2023-05-11T11:24:05.860Z,64238.87
2023-05-11T11:25:12.057Z,64273.61
2023-05-11T11:26:16.816Z,64273.16
2023-05-11T11:27:18.697Z,64292.59
2023-05-11T11:28:20.678Z,64351.95
2023-05-11T11:29:22.652Z,64369.93
2023-05-11T11:30:27.602Z,64388.49
2023-05-11T11:31:32.506Z,64398.52
2023-05-11T11:32:34.737Z,64455.33
2023-05-11T11:33:36.746Z,64459.30
2023-05-11T11:34:38.623Z,64443.27
2023-05-11T11:35:44.627Z,64457.98
2023-05-11T11:36:59.502Z,64488.81
2023-05-11T11:38:06.716Z,64496.19
2023-05-11T11:39:08.599Z,64509.02
2023-05-11T11:40:15.329Z,64388.15
2023-05-11T11:41:27.566Z,64381.75
2023-05-11T11:42:33.211Z,64382.41
2023-05-11T11:43:44.223Z,64363.96
2023-05-11T11:44:46.307Z,64353.07
2023-05-11T11:46:01.956Z,64355.93
2023-05-11T11:47:16.263Z,64336.71
2023-05-11T11:48:36.852Z,64352.82
2023-05-11T11:49:40.476Z,64335.16
2023-05-11T11:50:44.838Z,64325.02
2023-05-11T11:51:46.863Z,64328.79
2023-05-11T11:52:48.912Z,64296.76
2023-05-11T11:53:54.511Z,64309.12
2023-05-11T11:54:58.554Z,64316.74
2023-05-11T11:56:00.442Z,64317.31
2023-05-11T11:57:02.557Z,64312.34
2023-05-11T11:58:04.420Z,64296.76
2023-05-11T11:59:06.501Z,64305.72
2023-05-11T12:00:10.687Z,64252.20
2023-05-11T12:01:15.391Z,64234.11
2023-05-11T12:02:18.475Z,64244.47
2023-05-11T12:03:24.209Z,64276.01
2023-05-11T12:05:51.938Z,64327.68
2023-05-11T12:06:57.818Z,64308.58
2023-05-11T12:08:03.497Z,64347.55
2023-05-11T12:09:08.437Z,64355.81
2023-05-11T12:10:13.475Z,64358.58
2023-05-11T12:11:16.990Z,64341.59
2023-05-11T12:12:20.181Z,64391.26
2023-05-11T12:13:26.755Z,64382.41
2023-05-11T12:14:31.486Z,64366.96
2023-05-11T12:15:33.463Z,64398.43
2023-05-11T12:16:35.484Z,64414.46
2023-05-11T12:17:38.281Z,64443.18
2023-05-11T12:18:41.886Z,64450.24
2023-05-11T12:19:44.491Z,64448.79
2023-05-11T12:20:46.772Z,64465.91
2023-05-11T12:21:48.602Z,64470.79
2023-05-11T12:22:50.737Z,64457.19
2023-05-11T12:23:58.549Z,64451.56
2023-05-11T12:25:06.346Z,64426.60
2023-05-11T12:26:08.626Z,64397.21
2023-05-11T12:27:10.703Z,64364.87
2023-05-11T12:28:12.661Z,64363.66
2023-05-11T12:29:14.955Z,64381.86
2023-05-11T12:30:22.582Z,64386.38
2023-05-11T12:31:24.576Z,64366.32
2023-05-11T12:32:30.894Z,64357.58
2023-05-11T12:33:32.920Z,64349.41
2023-05-11T12:34:34.756Z,64361.01
2023-05-11T12:35:36.634Z,64345.99
2023-05-11T12:36:38.589Z,64332.76
2023-05-11T12:37:43.578Z,64304.72
2023-05-11T12:38:46.994Z,64287.49
2023-05-11T12:39:55.264Z,64296.76
2023-05-11T12:40:57.243Z,64322.37
2023-05-11T12:41:59.255Z,64294.79
2023-05-11T12:43:01.125Z,64315.09